Detroit Metropolitan Wayne County Airport
KDTW : now visible

Airfield :











YOU CAN JOIN US ON...

 
LOGIN :

Register | Disclaimer

   EN    FR    IT 

 









Legend :    VFR   Marginal VFR   IFR   Intensive IFR   Very Intensive IFR
Visi :
Ceiling :
>= 8 km
>= 3000ft
5 to 8 km
1000 to 3000 ft
1500m to 5 km
500 to 1000 ft
800 to 1500m
200 to 500 ft
< 800m
< 200 ft
Symbols :   Thunderstorms  Fog  Heavy snow  Heavy precipitations  Wind > 20 kt






- Airport Elevation : 645 ft
- IATA code : DTW


KDTW - Detroit Metropolitan Wayne County

CURRENT METAR :
  • 152253Z 16003KT 7SM FEW015 BKN050 BKN220 02/M01 A2960 RMK AO2 SLP027 T00171011

EXPIRED METARs :
  • 152158Z 23004KT 7SM FEW010 SCT015 BKN220 02/00 A2957 RMK AO2 T00220000
  • 152153Z 24006KT 7SM SCT010 BKN015 BKN220 02/00 A2957 RMK AO2 SLP018 T00220000
  • 152114Z 21008KT 7SM SCT010 BKN015 BKN220 02/01 A2957 RMK AO2 T00220006
  • 152100Z 22010KT 7SM SCT005 BKN010 OVC015 02/01 A2957 RMK AO2 T00170006

TAF KDTW
Valid from the 16 at 00:00 until the 17 at 06:00 UTC


152320Z 1600/1706 16005KT P6SM SCT045 SCT060 SCT080
FM160400 16004KT P6SM SCT025 BKN045 OVC070
FM161700 26011KT P6SM SCT028 BKN050
FM170000 24008KT P6SM OVC016
KZOB FIR / North America



MET'MAP, your aeronautical weather chart ! - Copyright ORBIFLY December 2007 - Disclaimer

ORBIFLY MET'MAP TEAM :

Programming & Development : Alexandra Zaïnal
Concept & original design : Baudouin d'Aumeries
Assistance for programming : Marc-Olivier Méhu
Technical & hardware support : Manuel Goepfert

Contact : metmap@orbifly.com




SOURCES & CREDITS :

   NOAA       Earth
Advisory